sensor_id;sensor_type;location;lat;lon;timestamp;temperature;humidity
14473;DHT22;7322;50.872;4.386;2023-09-30T00:01:41;23.70;99.90
14473;DHT22;7322;50.872;4.386;2023-09-30T00:04:10;23.70;99.90
14473;DHT22;7322;50.872;4.386;2023-09-30T00:06:40;23.60;99.90
14473;DHT22;7322;50.872;4.386;2023-09-30T00:09:12;23.60;99.90
14473;DHT22;7322;50.872;4.386;2023-09-30T00:11:46;23.70;99.90
14473;DHT22;7322;50.872;4.386;2023-09-30T00:14:38;23.70;99.90
14473;DHT22;7322;50.872;4.386;2023-09-30T00:17:05;23.60;99.90
14473;DHT22;7322;50.872;4.386;2023-09-30T00:19:34;23.60;99.90
14473;DHT22;7322;50.872;4.386;2023-09-30T00:22:03;23.60;99.90
14473;DHT22;7322;50.872;4.386;2023-09-30T00:24:36;23.60;99.90
14473;DHT22;7322;50.872;4.386;2023-09-30T00:27:04;23.60;99.90
14473;DHT22;7322;50.872;4.386;2023-09-30T00:29:32;23.60;99.90
14473;DHT22;7322;50.872;4.386;2023-09-30T00:32:02;23.60;99.90
14473;DHT22;7322;50.872;4.386;2023-09-30T00:34:33;23.60;99.90
14473;DHT22;7322;50.872;4.386;2023-09-30T00:37:01;23.60;99.90
14473;DHT22;7322;50.872;4.386;2023-09-30T00:39:28;23.70;99.90
14473;DHT22;7322;50.872;4.386;2023-09-30T00:41:56;23.70;99.90
14473;DHT22;7322;50.872;4.386;2023-09-30T00:44:26;23.60;99.90
14473;DHT22;7322;50.872;4.386;2023-09-30T00:46:54;23.70;99.90
14473;DHT22;7322;50.872;4.386;2023-09-30T00:49:26;23.60;99.90
14473;DHT22;7322;50.872;4.386;2023-09-30T00:51:54;23.60;99.90
14473;DHT22;7322;50.872;4.386;2023-09-30T00:54:27;23.60;99.90
14473;DHT22;7322;50.872;4.386;2023-09-30T00:57:06;23.60;99.90
14473;DHT22;7322;50.872;4.386;2023-09-30T00:59:34;23.60;99.90
14473;DHT22;7322;50.872;4.386;2023-09-30T01:02:02;23.50;99.90
14473;DHT22;7322;50.872;4.386;2023-09-30T01:04:33;23.60;99.90
14473;DHT22;7322;50.872;4.386;2023-09-30T01:07:02;23.50;99.90
14473;DHT22;7322;50.872;4.386;2023-09-30T01:09:30;23.50;99.90
14473;DHT22;7322;50.872;4.386;2023-09-30T01:12:00;23.50;99.90
14473;DHT22;7322;50.872;4.386;2023-09-30T01:14:56;23.50;99.90
14473;DHT22;7322;50.872;4.386;2023-09-30T01:17:31;23.40;99.90
14473;DHT22;7322;50.872;4.386;2023-09-30T01:23:10;23.50;99.90
14473;DHT22;7322;50.872;4.386;2023-09-30T01:25:40;23.50;99.90
14473;DHT22;7322;50.872;4.386;2023-09-30T01:28:09;23.40;99.90
14473;DHT22;7322;50.872;4.386;2023-09-30T01:30:49;23.40;99.90
14473;DHT22;7322;50.872;4.386;2023-09-30T01:33:17;23.40;99.90
14473;DHT22;7322;50.872;4.386;2023-09-30T01:35:44;23.30;99.90
14473;DHT22;7322;50.872;4.386;2023-09-30T01:38:13;23.30;99.90
14473;DHT22;7322;50.872;4.386;2023-09-30T01:40:40;23.30;99.90
14473;DHT22;7322;50.872;4.386;2023-09-30T01:43:09;23.20;99.90
14473;DHT22;7322;50.872;4.386;2023-09-30T01:45:41;23.30;99.90
14473;DHT22;7322;50.872;4.386;2023-09-30T01:48:09;23.30;99.90
14473;DHT22;7322;50.872;4.386;2023-09-30T01:50:36;23.30;99.90
14473;DHT22;7322;50.872;4.386;2023-09-30T01:53:04;23.30;99.90
14473;DHT22;7322;50.872;4.386;2023-09-30T01:55:33;23.40;99.90
14473;DHT22;7322;50.872;4.386;2023-09-30T01:58:00;23.40;99.90
14473;DHT22;7322;50.872;4.386;2023-09-30T02:00:27;23.40;99.90
14473;DHT22;7322;50.872;4.386;2023-09-30T02:02:54;23.30;99.90
14473;DHT22;7322;50.872;4.386;2023-09-30T02:05:22;23.30;99.90
14473;DHT22;7322;50.872;4.386;2023-09-30T02:07:49;23.20;99.90
14473;DHT22;7322;50.872;4.386;2023-09-30T02:10:17;23.30;99.90
14473;DHT22;7322;50.872;4.386;2023-09-30T02:12:46;23.30;99.90
14473;DHT22;7322;50.872;4.386;2023-09-30T02:15:14;23.30;99.90
14473;DHT22;7322;50.872;4.386;2023-09-30T02:17:42;23.30;99.90
14473;DHT22;7322;50.872;4.386;2023-09-30T02:20:12;23.30;99.90
14473;DHT22;7322;50.872;4.386;2023-09-30T02:22:41;23.30;99.90
14473;DHT22;7322;50.872;4.386;2023-09-30T02:25:10;23.30;99.90
14473;DHT22;7322;50.872;4.386;2023-09-30T02:27:38;23.40;99.90
14473;DHT22;7322;50.872;4.386;2023-09-30T02:30:09;23.50;99.90
14473;DHT22;7322;50.872;4.386;2023-09-30T02:32:38;23.40;99.90
14473;DHT22;7322;50.872;4.386;2023-09-30T02:35:06;23.30;99.90
14473;DHT22;7322;50.872;4.386;2023-09-30T02:37:34;23.30;99.90
14473;DHT22;7322;50.872;4.386;2023-09-30T02:40:03;23.30;99.90
14473;DHT22;7322;50.872;4.386;2023-09-30T02:42:35;23.30;99.90
14473;DHT22;7322;50.872;4.386;2023-09-30T02:45:05;23.20;99.90
14473;DHT22;7322;50.872;4.386;2023-09-30T02:47:35;23.20;99.90
14473;DHT22;7322;50.872;4.386;2023-09-30T02:50:04;23.10;99.90
14473;DHT22;7322;50.872;4.386;2023-09-30T02:52:32;23.10;99.90
14473;DHT22;7322;50.872;4.386;2023-09-30T02:54:59;23.10;99.90
14473;DHT22;7322;50.872;4.386;2023-09-30T02:57:26;23.10;99.90
14473;DHT22;7322;50.872;4.386;2023-09-30T02:59:54;23.10;99.90
14473;DHT22;7322;50.872;4.386;2023-09-30T03:02:22;23.20;99.90
14473;DHT22;7322;50.872;4.386;2023-09-30T03:04:51;23.20;99.90
14473;DHT22;7322;50.872;4.386;2023-09-30T03:07:19;23.20;99.90
14473;DHT22;7322;50.872;4.386;2023-09-30T03:09:46;23.10;99.90
14473;DHT22;7322;50.872;4.386;2023-09-30T03:12:13;23.10;99.90
14473;DHT22;7322;50.872;4.386;2023-09-30T03:14:41;23.00;99.90
14473;DHT22;7322;50.872;4.386;2023-09-30T03:17:09;23.00;99.90
14473;DHT22;7322;50.872;4.386;2023-09-30T03:19:37;23.00;99.90
14473;DHT22;7322;50.872;4.386;2023-09-30T03:22:06;23.00;99.90
14473;DHT22;7322;50.872;4.386;2023-09-30T03:24:37;22.90;99.90
14473;DHT22;7322;50.872;4.386;2023-09-30T03:27:04;22.80;99.90
14473;DHT22;7322;50.872;4.386;2023-09-30T03:29:35;22.80;99.90
14473;DHT22;7322;50.872;4.386;2023-09-30T03:32:03;22.70;99.90
14473;DHT22;7322;50.872;4.386;2023-09-30T03:34:30;22.50;99.90
14473;DHT22;7322;50.872;4.386;2023-09-30T03:36:57;22.60;99.90
14473;DHT22;7322;50.872;4.386;2023-09-30T03:39:27;22.70;99.90
14473;DHT22;7322;50.872;4.386;2023-09-30T03:41:54;22.80;99.90
14473;DHT22;7322;50.872;4.386;2023-09-30T03:44:22;22.90;99.90
14473;DHT22;7322;50.872;4.386;2023-09-30T03:46:50;22.90;99.90
14473;DHT22;7322;50.872;4.386;2023-09-30T03:49:17;22.80;99.90
14473;DHT22;7322;50.872;4.386;2023-09-30T03:51:45;22.70;99.90
14473;DHT22;7322;50.872;4.386;2023-09-30T03:54:12;22.60;99.90
14473;DHT22;7322;50.872;4.386;2023-09-30T03:56:41;22.70;99.90
14473;DHT22;7322;50.872;4.386;2023-09-30T03:59:09;22.70;99.90
14473;DHT22;7322;50.872;4.386;2023-09-30T04:01:36;22.70;99.90
14473;DHT22;7322;50.872;4.386;2023-09-30T04:04:06;22.60;99.90
14473;DHT22;7322;50.872;4.386;2023-09-30T04:06:35;22.60;99.90
14473;DHT22;7322;50.872;4.386;2023-09-30T04:09:04;22.70;99.90
14473;DHT22;7322;50.872;4.386;2023-09-30T04:11:35;22.80;99.90
14473;DHT22;7322;50.872;4.386;2023-09-30T04:14:04;22.80;99.90
14473;DHT22;7322;50.872;4.386;2023-09-30T04:16:32;22.60;99.90
14473;DHT22;7322;50.872;4.386;2023-09-30T04:18:59;22.50;99.90
14473;DHT22;7322;50.872;4.386;2023-09-30T04:21:26;22.50;99.90
14473;DHT22;7322;50.872;4.386;2023-09-30T04:23:55;22.50;99.90
14473;DHT22;7322;50.872;4.386;2023-09-30T04:26:22;22.50;99.90
14473;DHT22;7322;50.872;4.386;2023-09-30T04:28:49;22.50;99.90
14473;DHT22;7322;50.872;4.386;2023-09-30T04:31:18;22.50;99.90
14473;DHT22;7322;50.872;4.386;2023-09-30T04:33:48;22.50;99.90
14473;DHT22;7322;50.872;4.386;2023-09-30T04:36:16;22.50;99.90
14473;DHT22;7322;50.872;4.386;2023-09-30T04:38:43;22.50;99.90
14473;DHT22;7322;50.872;4.386;2023-09-30T04:41:10;22.60;99.90
14473;DHT22;7322;50.872;4.386;2023-09-30T04:43:38;22.70;99.90
14473;DHT22;7322;50.872;4.386;2023-09-30T04:46:05;22.60;99.90
14473;DHT22;7322;50.872;4.386;2023-09-30T04:48:35;22.60;99.90
14473;DHT22;7322;50.872;4.386;2023-09-30T04:51:06;22.60;99.90
14473;DHT22;7322;50.872;4.386;2023-09-30T04:53:33;22.70;99.90
14473;DHT22;7322;50.872;4.386;2023-09-30T04:56:01;22.70;99.90
14473;DHT22;7322;50.872;4.386;2023-09-30T04:58:28;22.70;99.90
14473;DHT22;7322;50.872;4.386;2023-09-30T05:00:59;22.70;99.90
14473;DHT22;7322;50.872;4.386;2023-09-30T05:03:26;22.70;99.90
14473;DHT22;7322;50.872;4.386;2023-09-30T05:06:03;22.70;99.90
14473;DHT22;7322;50.872;4.386;2023-09-30T05:08:31;22.60;99.90
14473;DHT22;7322;50.872;4.386;2023-09-30T05:10:58;22.60;99.90
14473;DHT22;7322;50.872;4.386;2023-09-30T05:13:25;22.70;99.90
14473;DHT22;7322;50.872;4.386;2023-09-30T05:15:54;22.70;99.90
14473;DHT22;7322;50.872;4.386;2023-09-30T05:18:22;22.70;99.90
14473;DHT22;7322;50.872;4.386;2023-09-30T05:20:50;22.50;99.90
14473;DHT22;7322;50.872;4.386;2023-09-30T05:23:20;22.50;99.90
14473;DHT22;7322;50.872;4.386;2023-09-30T05:25:56;22.40;99.90
14473;DHT22;7322;50.872;4.386;2023-09-30T05:28:23;22.40;99.90
14473;DHT22;7322;50.872;4.386;2023-09-30T05:30:50;22.30;99.90
14473;DHT22;7322;50.872;4.386;2023-09-30T05:33:18;22.30;99.90
14473;DHT22;7322;50.872;4.386;2023-09-30T05:35:48;22.30;99.90
14473;DHT22;7322;50.872;4.386;2023-09-30T05:38:15;22.40;99.90
14473;DHT22;7322;50.872;4.386;2023-09-30T05:40:46;22.40;99.90
14473;DHT22;7322;50.872;4.386;2023-09-30T05:43:14;22.40;99.90
14473;DHT22;7322;50.872;4.386;2023-09-30T05:45:42;22.40;99.90
14473;DHT22;7322;50.872;4.386;2023-09-30T05:48:15;22.50;99.90
14473;DHT22;7322;50.872;4.386;2023-09-30T05:50:42;22.60;99.90
14473;DHT22;7322;50.872;4.386;2023-09-30T05:53:09;22.60;99.90
14473;DHT22;7322;50.872;4.386;2023-09-30T05:55:42;22.70;99.90
14473;DHT22;7322;50.872;4.386;2023-09-30T05:58:38;22.80;99.90
14473;DHT22;7322;50.872;4.386;2023-09-30T06:01:08;22.80;99.90
14473;DHT22;7322;50.872;4.386;2023-09-30T06:03:40;22.80;99.90
14473;DHT22;7322;50.872;4.386;2023-09-30T06:06:21;22.80;99.90
14473;DHT22;7322;50.872;4.386;2023-09-30T06:08:52;22.80;99.90
14473;DHT22;7322;50.872;4.386;2023-09-30T06:11:30;22.80;99.90
14473;DHT22;7322;50.872;4.386;2023-09-30T06:13:59;22.70;99.90
14473;DHT22;7322;50.872;4.386;2023-09-30T06:16:26;22.70;99.90
14473;DHT22;7322;50.872;4.386;2023-09-30T06:18:55;22.60;99.90
14473;DHT22;7322;50.872;4.386;2023-09-30T06:21:29;22.60;99.90
14473;DHT22;7322;50.872;4.386;2023-09-30T06:24:02;22.60;99.90
14473;DHT22;7322;50.872;4.386;2023-09-30T06:26:29;22.60;99.90
14473;DHT22;7322;50.872;4.386;2023-09-30T06:32:20;23.00;99.90
14473;DHT22;7322;50.872;4.386;2023-09-30T06:34:48;23.20;99.90
14473;DHT22;7322;50.872;4.386;2023-09-30T06:37:21;23.30;99.90
14473;DHT22;7322;50.872;4.386;2023-09-30T06:40:01;23.50;99.90
14473;DHT22;7322;50.872;4.386;2023-09-30T06:42:29;23.50;99.90
14473;DHT22;7322;50.872;4.386;2023-09-30T06:44:57;23.60;99.90
14473;DHT22;7322;50.872;4.386;2023-09-30T06:47:26;23.70;99.90
14473;DHT22;7322;50.872;4.386;2023-09-30T06:49:53;23.70;99.90
14473;DHT22;7322;50.872;4.386;2023-09-30T06:52:21;23.70;99.90
14473;DHT22;7322;50.872;4.386;2023-09-30T06:54:50;23.80;99.90
14473;DHT22;7322;50.872;4.386;2023-09-30T06:57:17;23.80;99.90
14473;DHT22;7322;50.872;4.386;2023-09-30T06:59:45;23.90;99.90
14473;DHT22;7322;50.872;4.386;2023-09-30T07:02:12;23.90;99.90
14473;DHT22;7322;50.872;4.386;2023-09-30T07:04:57;23.90;99.90
14473;DHT22;7322;50.872;4.386;2023-09-30T07:07:25;24.00;99.90
14473;DHT22;7322;50.872;4.386;2023-09-30T07:10:03;23.90;99.90
14473;DHT22;7322;50.872;4.386;2023-09-30T07:12:33;24.00;99.90
14473;DHT22;7322;50.872;4.386;2023-09-30T07:15:08;24.00;99.90
14473;DHT22;7322;50.872;4.386;2023-09-30T07:17:42;24.00;99.90
14473;DHT22;7322;50.872;4.386;2023-09-30T07:20:15;24.00;99.90
14473;DHT22;7322;50.872;4.386;2023-09-30T07:22:43;24.00;99.90
14473;DHT22;7322;50.872;4.386;2023-09-30T07:25:17;24.00;99.90
14473;DHT22;7322;50.872;4.386;2023-09-30T07:27:55;24.10;99.90
14473;DHT22;7322;50.872;4.386;2023-09-30T07:30:31;24.10;99.90
14473;DHT22;7322;50.872;4.386;2023-09-30T07:33:00;24.00;99.90
14473;DHT22;7322;50.872;4.386;2023-09-30T07:35:36;24.10;99.90
14473;DHT22;7322;50.872;4.386;2023-09-30T07:38:05;24.10;99.90
14473;DHT22;7322;50.872;4.386;2023-09-30T07:40:32;24.00;99.90
14473;DHT22;7322;50.872;4.386;2023-09-30T07:42:59;24.00;99.90
14473;DHT22;7322;50.872;4.386;2023-09-30T07:45:41;24.00;99.90
14473;DHT22;7322;50.872;4.386;2023-09-30T07:48:09;24.00;99.90
14473;DHT22;7322;50.872;4.386;2023-09-30T07:50:48;24.00;99.90
14473;DHT22;7322;50.872;4.386;2023-09-30T07:53:36;24.10;99.90
14473;DHT22;7322;50.872;4.386;2023-09-30T07:56:24;24.10;99.90
14473;DHT22;7322;50.872;4.386;2023-09-30T07:58:51;24.10;99.90
14473;DHT22;7322;50.872;4.386;2023-09-30T08:01:18;24.10;99.90
14473;DHT22;7322;50.872;4.386;2023-09-30T08:03:46;24.10;99.90
14473;DHT22;7322;50.872;4.386;2023-09-30T08:06:14;24.10;99.90
14473;DHT22;7322;50.872;4.386;2023-09-30T08:08:41;24.10;99.90
14473;DHT22;7322;50.872;4.386;2023-09-30T08:11:08;24.10;99.90
14473;DHT22;7322;50.872;4.386;2023-09-30T08:13:35;24.10;99.90
14473;DHT22;7322;50.872;4.386;2023-09-30T08:16:03;24.20;99.90
14473;DHT22;7322;50.872;4.386;2023-09-30T08:18:30;24.10;99.90
14473;DHT22;7322;50.872;4.386;2023-09-30T08:20:58;24.20;99.90
14473;DHT22;7322;50.872;4.386;2023-09-30T08:23:26;24.20;99.90
14473;DHT22;7322;50.872;4.386;2023-09-30T08:25:57;24.20;99.90
14473;DHT22;7322;50.872;4.386;2023-09-30T08:28:24;24.20;99.90
14473;DHT22;7322;50.872;4.386;2023-09-30T08:31:02;24.20;99.90
14473;DHT22;7322;50.872;4.386;2023-09-30T08:33:32;24.20;99.90
14473;DHT22;7322;50.872;4.386;2023-09-30T08:36:02;24.20;99.90
14473;DHT22;7322;50.872;4.386;2023-09-30T08:38:35;24.20;99.90
14473;DHT22;7322;50.872;4.386;2023-09-30T08:41:04;24.20;99.90
14473;DHT22;7322;50.872;4.386;2023-09-30T08:43:37;24.20;99.90
14473;DHT22;7322;50.872;4.386;2023-09-30T08:46:05;24.30;99.90
14473;DHT22;7322;50.872;4.386;2023-09-30T08:48:34;24.20;99.90
14473;DHT22;7322;50.872;4.386;2023-09-30T08:51:03;24.30;99.90
14473;DHT22;7322;50.872;4.386;2023-09-30T08:53:30;24.30;99.90
14473;DHT22;7322;50.872;4.386;2023-09-30T08:55:59;24.30;99.90
14473;DHT22;7322;50.872;4.386;2023-09-30T08:58:38;24.30;99.90
14473;DHT22;7322;50.872;4.386;2023-09-30T09:01:06;24.40;99.90
14473;DHT22;7322;50.872;4.386;2023-09-30T09:03:38;24.30;99.90
14473;DHT22;7322;50.872;4.386;2023-09-30T09:06:24;24.40;99.90
14473;DHT22;7322;50.872;4.386;2023-09-30T09:09:13;24.40;99.90
14473;DHT22;7322;50.872;4.386;2023-09-30T09:11:46;24.40;99.90
14473;DHT22;7322;50.872;4.386;2023-09-30T09:14:13;24.40;99.90
14473;DHT22;7322;50.872;4.386;2023-09-30T09:16:51;24.40;99.90
14473;DHT22;7322;50.872;4.386;2023-09-30T09:19:20;24.40;99.90
14473;DHT22;7322;50.872;4.386;2023-09-30T09:21:55;24.40;99.90
14473;DHT22;7322;50.872;4.386;2023-09-30T09:24:30;24.30;99.90
14473;DHT22;7322;50.872;4.386;2023-09-30T09:27:11;24.40;99.90
14473;DHT22;7322;50.872;4.386;2023-09-30T09:29:39;24.40;99.90
14473;DHT22;7322;50.872;4.386;2023-09-30T09:32:11;24.40;99.90
14473;DHT22;7322;50.872;4.386;2023-09-30T09:34:41;24.40;99.90
14473;DHT22;7322;50.872;4.386;2023-09-30T09:37:16;24.50;99.90
14473;DHT22;7322;50.872;4.386;2023-09-30T09:39:51;24.50;99.90
14473;DHT22;7322;50.872;4.386;2023-09-30T09:42:26;24.50;99.90
14473;DHT22;7322;50.872;4.386;2023-09-30T09:44:56;24.40;99.90
14473;DHT22;7322;50.872;4.386;2023-09-30T09:47:29;24.40;99.90
14473;DHT22;7322;50.872;4.386;2023-09-30T09:49:58;24.50;99.90
14473;DHT22;7322;50.872;4.386;2023-09-30T09:52:34;24.50;99.90
14473;DHT22;7322;50.872;4.386;2023-09-30T09:55:04;24.50;99.90
14473;DHT22;7322;50.872;4.386;2023-09-30T09:57:34;24.50;99.90
14473;DHT22;7322;50.872;4.386;2023-09-30T10:00:04;24.40;99.90
14473;DHT22;7322;50.872;4.386;2023-09-30T10:02:39;24.40;99.90
14473;DHT22;7322;50.872;4.386;2023-09-30T10:05:07;24.40;99.90
14473;DHT22;7322;50.872;4.386;2023-09-30T10:07:42;24.40;99.90
14473;DHT22;7322;50.872;4.386;2023-09-30T10:10:13;24.50;99.90
14473;DHT22;7322;50.872;4.386;2023-09-30T10:12:46;24.50;99.90
14473;DHT22;7322;50.872;4.386;2023-09-30T10:15:38;24.50;99.90
14473;DHT22;7322;50.872;4.386;2023-09-30T10:18:08;24.50;99.90
14473;DHT22;7322;50.872;4.386;2023-09-30T10:20:44;24.40;99.90
14473;DHT22;7322;50.872;4.386;2023-09-30T10:23:24;24.50;99.90
14473;DHT22;7322;50.872;4.386;2023-09-30T10:25:54;24.50;99.90
14473;DHT22;7322;50.872;4.386;2023-09-30T10:28:41;24.50;99.90
14473;DHT22;7322;50.872;4.386;2023-09-30T10:31:15;24.60;99.90
14473;DHT22;7322;50.872;4.386;2023-09-30T10:34:20;24.50;99.90
14473;DHT22;7322;50.872;4.386;2023-09-30T10:36:48;24.50;99.90
14473;DHT22;7322;50.872;4.386;2023-09-30T10:39:53;24.50;99.90
14473;DHT22;7322;50.872;4.386;2023-09-30T10:42:46;24.60;99.90
14473;DHT22;7322;50.872;4.386;2023-09-30T10:45:44;24.60;99.90
14473;DHT22;7322;50.872;4.386;2023-09-30T10:48:37;24.60;99.90
14473;DHT22;7322;50.872;4.386;2023-09-30T10:51:18;24.60;99.90
14473;DHT22;7322;50.872;4.386;2023-09-30T10:53:49;24.60;99.90
14473;DHT22;7322;50.872;4.386;2023-09-30T10:56:19;24.60;99.90
14473;DHT22;7322;50.872;4.386;2023-09-30T10:58:53;24.60;99.90
14473;DHT22;7322;50.872;4.386;2023-09-30T11:01:34;24.70;99.90
14473;DHT22;7322;50.872;4.386;2023-09-30T11:04:02;24.70;99.90
14473;DHT22;7322;50.872;4.386;2023-09-30T11:06:34;24.70;99.90
14473;DHT22;7322;50.872;4.386;2023-09-30T11:09:03;24.70;99.90
14473;DHT22;7322;50.872;4.386;2023-09-30T11:11:36;24.70;99.90
14473;DHT22;7322;50.872;4.386;2023-09-30T11:14:19;24.70;99.90
14473;DHT22;7322;50.872;4.386;2023-09-30T11:16:49;24.70;99.90
14473;DHT22;7322;50.872;4.386;2023-09-30T11:19:19;24.70;99.90
14473;DHT22;7322;50.872;4.386;2023-09-30T11:21:49;24.70;99.90
14473;DHT22;7322;50.872;4.386;2023-09-30T11:24:17;24.70;99.90
14473;DHT22;7322;50.872;4.386;2023-09-30T11:26:46;24.70;99.90
14473;DHT22;7322;50.872;4.386;2023-09-30T11:29:17;24.70;99.90
14473;DHT22;7322;50.872;4.386;2023-09-30T11:31:51;24.80;99.90
14473;DHT22;7322;50.872;4.386;2023-09-30T11:34:19;24.70;99.90
14473;DHT22;7322;50.872;4.386;2023-09-30T11:36:48;24.80;99.90
14473;DHT22;7322;50.872;4.386;2023-09-30T11:39:21;24.80;99.90
14473;DHT22;7322;50.872;4.386;2023-09-30T11:41:50;24.80;99.90
14473;DHT22;7322;50.872;4.386;2023-09-30T11:44:18;24.80;99.90
14473;DHT22;7322;50.872;4.386;2023-09-30T11:46:57;24.80;99.90
14473;DHT22;7322;50.872;4.386;2023-09-30T11:49:28;24.80;99.90
14473;DHT22;7322;50.872;4.386;2023-09-30T11:52:02;24.80;99.90
14473;DHT22;7322;50.872;4.386;2023-09-30T11:54:36;24.90;99.90
14473;DHT22;7322;50.872;4.386;2023-09-30T11:57:09;24.90;99.90
14473;DHT22;7322;50.872;4.386;2023-09-30T11:59:38;24.80;99.90
14473;DHT22;7322;50.872;4.386;2023-09-30T12:02:09;24.80;99.90
14473;DHT22;7322;50.872;4.386;2023-09-30T12:04:36;24.90;99.90
14473;DHT22;7322;50.872;4.386;2023-09-30T12:07:03;24.90;99.90
14473;DHT22;7322;50.872;4.386;2023-09-30T12:09:30;24.80;99.90
14473;DHT22;7322;50.872;4.386;2023-09-30T12:12:02;24.80;99.90
14473;DHT22;7322;50.872;4.386;2023-09-30T12:14:31;24.90;99.90
14473;DHT22;7322;50.872;4.386;2023-09-30T12:16:59;24.80;99.90
14473;DHT22;7322;50.872;4.386;2023-09-30T12:19:28;24.80;99.90
14473;DHT22;7322;50.872;4.386;2023-09-30T12:21:58;24.90;99.90
14473;DHT22;7322;50.872;4.386;2023-09-30T12:24:26;24.90;99.90
14473;DHT22;7322;50.872;4.386;2023-09-30T12:26:53;24.80;99.90
14473;DHT22;7322;50.872;4.386;2023-09-30T12:29:22;24.90;99.90
14473;DHT22;7322;50.872;4.386;2023-09-30T12:31:50;24.90;99.90
14473;DHT22;7322;50.872;4.386;2023-09-30T12:34:19;24.80;99.90
14473;DHT22;7322;50.872;4.386;2023-09-30T12:36:50;24.90;99.90
14473;DHT22;7322;50.872;4.386;2023-09-30T12:39:17;24.90;99.90
14473;DHT22;7322;50.872;4.386;2023-09-30T12:41:49;24.80;99.90
14473;DHT22;7322;50.872;4.386;2023-09-30T12:44:16;24.90;99.90
14473;DHT22;7322;50.872;4.386;2023-09-30T12:46:47;24.90;99.90
14473;DHT22;7322;50.872;4.386;2023-09-30T12:49:15;24.80;99.90
14473;DHT22;7322;50.872;4.386;2023-09-30T12:51:42;24.80;99.90
14473;DHT22;7322;50.872;4.386;2023-09-30T12:54:11;24.90;99.90
14473;DHT22;7322;50.872;4.386;2023-09-30T12:56:39;24.80;99.90
14473;DHT22;7322;50.872;4.386;2023-09-30T12:59:08;24.80;99.90
14473;DHT22;7322;50.872;4.386;2023-09-30T13:01:37;24.80;99.90
14473;DHT22;7322;50.872;4.386;2023-09-30T13:04:05;24.90;99.90
14473;DHT22;7322;50.872;4.386;2023-09-30T13:06:33;24.80;99.90
14473;DHT22;7322;50.872;4.386;2023-09-30T13:09:01;24.90;99.90
14473;DHT22;7322;50.872;4.386;2023-09-30T13:11:30;24.80;99.90
14473;DHT22;7322;50.872;4.386;2023-09-30T13:13:57;24.80;99.90
14473;DHT22;7322;50.872;4.386;2023-09-30T13:16:24;24.80;99.90
14473;DHT22;7322;50.872;4.386;2023-09-30T13:18:51;24.80;99.90
14473;DHT22;7322;50.872;4.386;2023-09-30T13:21:18;24.80;99.90
14473;DHT22;7322;50.872;4.386;2023-09-30T13:23:47;24.90;99.90
14473;DHT22;7322;50.872;4.386;2023-09-30T13:26:14;24.90;99.90
14473;DHT22;7322;50.872;4.386;2023-09-30T13:28:43;24.90;99.90
14473;DHT22;7322;50.872;4.386;2023-09-30T13:31:10;24.90;99.90
14473;DHT22;7322;50.872;4.386;2023-09-30T13:33:38;24.90;99.90
14473;DHT22;7322;50.872;4.386;2023-09-30T13:36:05;24.90;99.90
14473;DHT22;7322;50.872;4.386;2023-09-30T13:38:38;24.90;99.90
14473;DHT22;7322;50.872;4.386;2023-09-30T13:41:06;24.90;99.90
14473;DHT22;7322;50.872;4.386;2023-09-30T13:43:34;24.90;99.90
14473;DHT22;7322;50.872;4.386;2023-09-30T13:46:04;24.90;99.90
14473;DHT22;7322;50.872;4.386;2023-09-30T13:48:33;24.90;99.90
14473;DHT22;7322;50.872;4.386;2023-09-30T13:51:04;24.90;99.90
14473;DHT22;7322;50.872;4.386;2023-09-30T13:53:33;24.90;99.90
14473;DHT22;7322;50.872;4.386;2023-09-30T13:56:01;24.80;99.90
14473;DHT22;7322;50.872;4.386;2023-09-30T13:58:29;24.80;99.90
14473;DHT22;7322;50.872;4.386;2023-09-30T14:00:56;24.80;99.90
14473;DHT22;7322;50.872;4.386;2023-09-30T14:03:24;24.80;99.90
14473;DHT22;7322;50.872;4.386;2023-09-30T14:05:52;24.80;99.90
14473;DHT22;7322;50.872;4.386;2023-09-30T14:08:20;24.80;99.90
14473;DHT22;7322;50.872;4.386;2023-09-30T14:10:48;24.80;99.90
14473;DHT22;7322;50.872;4.386;2023-09-30T14:13:17;24.80;99.90
14473;DHT22;7322;50.872;4.386;2023-09-30T14:15:51;24.80;99.90
14473;DHT22;7322;50.872;4.386;2023-09-30T14:18:19;24.80;99.90
14473;DHT22;7322;50.872;4.386;2023-09-30T14:20:51;24.80;99.90
14473;DHT22;7322;50.872;4.386;2023-09-30T14:23:19;24.80;99.90
14473;DHT22;7322;50.872;4.386;2023-09-30T14:25:47;24.80;99.90
14473;DHT22;7322;50.872;4.386;2023-09-30T14:28:17;24.80;99.90
14473;DHT22;7322;50.872;4.386;2023-09-30T14:30:45;24.80;99.90
14473;DHT22;7322;50.872;4.386;2023-09-30T14:33:13;24.90;99.90
14473;DHT22;7322;50.872;4.386;2023-09-30T14:35:40;24.90;99.90
14473;DHT22;7322;50.872;4.386;2023-09-30T14:38:13;24.80;99.90
14473;DHT22;7322;50.872;4.386;2023-09-30T14:40:41;24.90;99.90
14473;DHT22;7322;50.872;4.386;2023-09-30T14:43:10;24.80;99.90
14473;DHT22;7322;50.872;4.386;2023-09-30T14:45:38;24.80;99.90
14473;DHT22;7322;50.872;4.386;2023-09-30T14:48:06;24.90;99.90
14473;DHT22;7322;50.872;4.386;2023-09-30T14:50:35;24.80;99.90
14473;DHT22;7322;50.872;4.386;2023-09-30T14:53:04;24.90;99.90
14473;DHT22;7322;50.872;4.386;2023-09-30T14:55:33;24.90;99.90
14473;DHT22;7322;50.872;4.386;2023-09-30T14:58:02;24.90;99.90
14473;DHT22;7322;50.872;4.386;2023-09-30T15:00:30;24.80;99.90
14473;DHT22;7322;50.872;4.386;2023-09-30T15:02:57;24.90;99.90
14473;DHT22;7322;50.872;4.386;2023-09-30T15:05:24;24.90;99.90
14473;DHT22;7322;50.872;4.386;2023-09-30T15:07:51;24.90;99.90
14473;DHT22;7322;50.872;4.386;2023-09-30T15:10:19;24.90;99.90
14473;DHT22;7322;50.872;4.386;2023-09-30T15:12:47;24.90;99.90
14473;DHT22;7322;50.872;4.386;2023-09-30T15:15:14;24.90;99.90
14473;DHT22;7322;50.872;4.386;2023-09-30T15:17:42;24.80;99.90
14473;DHT22;7322;50.872;4.386;2023-09-30T15:20:11;24.80;99.90
14473;DHT22;7322;50.872;4.386;2023-09-30T15:22:38;24.90;99.90
14473;DHT22;7322;50.872;4.386;2023-09-30T15:25:07;24.90;99.90
14473;DHT22;7322;50.872;4.386;2023-09-30T15:27:34;24.90;99.90
14473;DHT22;7322;50.872;4.386;2023-09-30T15:30:04;24.90;99.90
14473;DHT22;7322;50.872;4.386;2023-09-30T15:32:31;25.00;99.90
14473;DHT22;7322;50.872;4.386;2023-09-30T15:34:59;24.90;99.90
14473;DHT22;7322;50.872;4.386;2023-09-30T15:37:26;25.00;99.90
14473;DHT22;7322;50.872;4.386;2023-09-30T15:39:59;25.00;99.90
14473;DHT22;7322;50.872;4.386;2023-09-30T15:42:33;25.00;99.90
14473;DHT22;7322;50.872;4.386;2023-09-30T15:45:04;24.90;99.90
14473;DHT22;7322;50.872;4.386;2023-09-30T15:47:33;24.90;99.90
14473;DHT22;7322;50.872;4.386;2023-09-30T15:50:04;24.90;99.90
14473;DHT22;7322;50.872;4.386;2023-09-30T15:52:34;24.90;99.90
14473;DHT22;7322;50.872;4.386;2023-09-30T15:55:01;24.90;99.90
14473;DHT22;7322;50.872;4.386;2023-09-30T15:57:35;24.90;99.90
14473;DHT22;7322;50.872;4.386;2023-09-30T16:00:17;24.90;99.90
14473;DHT22;7322;50.872;4.386;2023-09-30T16:02:51;24.90;99.90
14473;DHT22;7322;50.872;4.386;2023-09-30T16:05:21;24.90;99.90
14473;DHT22;7322;50.872;4.386;2023-09-30T16:07:48;24.90;99.90
14473;DHT22;7322;50.872;4.386;2023-09-30T16:10:18;24.90;99.90
14473;DHT22;7322;50.872;4.386;2023-09-30T16:12:55;24.90;99.90